FXMM/MSU METAR and TAF weather

Enter ICAO airport designator
Station Type Date Time Source
FXMM METAR 2019/12/08 14:00 UTC NOAA

FXMM 081400Z 00000KT 9999 BKN030 FEW035CB 26/08 Q1014 TEMPO TSRA


Station Type Date Time Source
FXMM Decoded METAR 2019/12/08 14:00 UTC NOAA

Maseru / Moshoeshoe, Lesotho (FXMM) 29-27S 027-33E
Dec 08, 2019 - 09:00 AM EST / 2019.12.08 1400 UTC
Wind: Calm:0
Visibility: greater than 7 mile(s):0
Sky conditions: mostly cloudy
Weather: Cumulonimbus clouds observed
Temperature: 78 F (26 C)
Dew Point: 46 F (8 C)
Relative Humidity: 31%
Pressure (altimeter): 29.94 in. Hg (1014 hPa)
ob: FXMM 081400Z 00000KT 9999 BKN030 FEW035CB 26/08 Q1014 TEMPO TSRA
cycle: 14

Station Type Date Time Source
FXMM TAF 2019/12/07 12:09 UTC NOAA

TAF TAF FXMM 070958Z 0712/0812 33004KT 9999 SCT035
BECMG 0810/0812 FEW035CB

Example: see airport list